Time;durP1;ratioP1;P1;durP2;ratioP2;P2;SDS_P1;SDS_P2;PMS_P1;PMS_P2;Temp;Humidity;BMP_temperature;BMP_pressure;BME280_temperature;BME280_humidity;BME280_pressure;Samples;Min_cycle;Max_cycle;Signal;HPM_P1;HPM_P2
2023/06/16 00:02:07;;;;;;;10.85;4.63;;;16.10;98.20;;;;;;4965667;28;20053;-71
2023/06/16 00:04:35;;;;;;;12.60;5.10;;;16.10;98.40;;;;;;4929863;28;120047;-72
2023/06/16 00:07:01;;;;;;;11.32;5.00;;;16.10;98.50;;;;;;4971110;28;20038;-72
2023/06/16 00:09:28;;;;;;;10.70;4.95;;;16.00;98.80;;;;;;4928744;28;207126;-71
2023/06/16 00:11:55;;;;;;;9.45;4.78;;;16.00;98.80;;;;;;4961869;28;20062;-71
2023/06/16 00:14:21;;;;;;;11.10;5.00;;;15.90;99.00;;;;;;4923236;28;207991;-71
2023/06/16 00:16:47;;;;;;;13.80;5.20;;;15.90;99.00;;;;;;4973285;28;20108;-71
2023/06/16 00:19:15;;;;;;;11.63;5.43;;;15.90;99.00;;;;;;4924130;28;212702;-71
2023/06/16 00:21:45;;;;;;;10.90;4.93;;;15.90;99.10;;;;;;4989762;28;20047;-71
2023/06/16 00:24:11;;;;;;;13.32;5.13;;;15.90;99.10;;;;;;4909198;28;206873;-71
2023/06/16 00:26:37;;;;;;;13.85;5.47;;;15.90;99.00;;;;;;4960593;28;20050;-70
2023/06/16 00:29:04;;;;;;;15.88;5.50;;;15.90;99.00;;;;;;4923721;28;208013;-71
2023/06/16 00:31:31;;;;;;;13.45;6.05;;;15.90;99.10;;;;;;4974886;28;20063;-70
2023/06/16 00:33:58;;;;;;;11.18;5.72;;;15.80;99.20;;;;;;4923288;28;209339;-70
2023/06/16 00:36:24;;;;;;;12.65;6.07;;;15.80;99.30;;;;;;4975509;28;20427;-70
2023/06/16 00:38:50;;;;;;;13.13;6.60;;;15.80;99.30;;;;;;4919360;28;206893;-71
2023/06/16 00:41:16;;;;;;;13.57;6.47;;;15.70;99.40;;;;;;4978518;28;20058;-71
2023/06/16 00:43:43;;;;;;;13.43;6.22;;;15.70;99.40;;;;;;4915931;28;211067;-71
2023/06/16 00:46:11;;;;;;;15.40;6.78;;;15.70;99.50;;;;;;4986005;28;20058;-71
2023/06/16 00:48:37;;;;;;;12.15;6.57;;;15.70;99.50;;;;;;4932053;28;207251;-71
2023/06/16 00:51:03;;;;;;;14.70;7.03;;;15.70;99.80;;;;;;4980863;28;20065;-71
2023/06/16 00:53:31;;;;;;;13.70;7.60;;;15.70;99.80;;;;;;4917607;28;207185;-71
2023/06/16 00:55:58;;;;;;;13.82;6.78;;;15.70;99.90;;;;;;5003508;28;20039;-71
2023/06/16 00:58:25;;;;;;;12.10;6.80;;;15.60;99.90;;;;;;4928758;28;208416;-71
2023/06/16 01:00:51;;;;;;;15.30;7.22;;;15.60;99.90;;;;;;4994201;28;20058;-71
2023/06/16 01:03:17;;;;;;;12.02;6.50;;;15.60;99.90;;;;;;4925654;28;210052;-71
2023/06/16 01:05:43;;;;;;;14.93;6.70;;;15.60;99.90;;;;;;5006516;28;20065;-71
2023/06/16 01:08:27;;;;;;;15.02;6.43;;;15.60;99.90;;;;;;4954998;28;207748;-71
2023/06/16 01:11:20;;;;;;;10.82;6.20;;;15.60;99.90;;;;;;4961611;28;20562;-71
2023/06/16 01:14:01;;;;;;;14.52;7.18;;;15.60;99.90;;;;;;4931623;28;207540;-70
2023/06/16 01:16:31;;;;;;;15.18;7.05;;;15.60;99.90;;;;;;4998340;28;20054;-71
2023/06/16 01:19:02;;;;;;;12.45;6.50;;;15.50;99.90;;;;;;4950906;28;206333;-70
2023/06/16 01:21:38;;;;;;;12.27;6.78;;;15.60;99.90;;;;;;4987854;28;20066;-70
2023/06/16 01:24:18;;;;;;;14.35;7.10;;;15.50;99.90;;;;;;4924606;28;207553;-70
2023/06/16 01:26:52;;;;;;;17.73;8.25;;;15.50;99.90;;;;;;4974415;28;20066;-70
2023/06/16 01:29:23;;;;;;;12.73;7.70;;;15.50;99.90;;;;;;4944784;28;206869;-71
2023/06/16 01:31:52;;;;;;;14.13;7.75;;;15.40;99.90;;;;;;4990175;28;20142;-70
2023/06/16 01:34:20;;;;;;;12.43;8.27;;;15.40;99.90;;;;;;4930240;28;207235;-71
2023/06/16 01:36:47;;;;;;;14.38;8.43;;;15.40;99.90;;;;;;4977894;28;20588;-71
2023/06/16 01:39:15;;;;;;;14.05;8.05;;;15.30;99.90;;;;;;4921764;28;207813;-71
2023/06/16 01:41:42;;;;;;;16.52;8.45;;;15.30;99.90;;;;;;4979065;28;20058;-71
2023/06/16 01:44:08;;;;;;;16.23;9.55;;;15.30;99.90;;;;;;4924619;28;214861;-70
2023/06/16 01:46:36;;;;;;;16.73;8.75;;;15.20;99.90;;;;;;4968596;28;20059;-70
2023/06/16 01:49:03;;;;;;;12.40;8.35;;;15.20;99.90;;;;;;4927585;28;208031;-71
2023/06/16 01:51:29;;;;;;;17.38;9.50;;;15.20;99.90;;;;;;4978906;28;20516;-70
2023/06/16 01:53:56;;;;;;;14.50;9.75;;;15.20;99.90;;;;;;4898630;28;209318;-70
2023/06/16 01:56:22;;;;;;;15.55;8.90;;;15.20;99.90;;;;;;4994344;28;20054;-71
2023/06/16 01:58:49;;;;;;;16.50;9.32;;;15.10;99.90;;;;;;4932940;28;208744;-71
2023/06/16 02:01:18;;;;;;;15.32;9.82;;;15.10;99.90;;;;;;5004378;28;20498;-71
2023/06/16 02:03:52;;;;;;;16.55;10.00;;;15.10;99.90;;;;;;4930949;28;206105;-71
2023/06/16 02:06:30;;;;;;;19.30;10.77;;;15.10;99.90;;;;;;5000053;28;20057;-71
2023/06/16 02:09:02;;;;;;;15.77;11.23;;;15.10;99.90;;;;;;4942236;28;210145;-71
2023/06/16 02:11:29;;;;;;;15.30;9.85;;;15.10;99.90;;;;;;4991407;28;20054;-71
2023/06/16 02:13:55;;;;;;;14.45;9.85;;;15.00;99.90;;;;;;4942136;28;207150;-71
2023/06/16 02:16:21;;;;;;;15.52;9.57;;;15.00;99.90;;;;;;5005803;28;20416;-72
2023/06/16 02:18:53;;;;;;;20.10;11.60;;;15.00;99.90;;;;;;4937934;28;214544;-71
2023/06/16 02:21:21;;;;;;;16.50;10.63;;;14.90;99.90;;;;;;4995206;28;20053;-72
2023/06/16 02:23:47;;;;;;;16.13;10.40;;;14.90;99.90;;;;;;4937496;28;208264;-71
2023/06/16 02:26:13;;;;;;;15.07;10.35;;;14.90;99.90;;;;;;4996045;28;20047;-71
2023/06/16 02:28:39;;;;;;;15.05;9.23;;;14.90;99.90;;;;;;4942734;28;208430;-71
2023/06/16 02:31:05;;;;;;;16.90;10.52;;;14.90;99.90;;;;;;5006535;28;20054;-71
2023/06/16 02:33:31;;;;;;;16.63;11.20;;;14.90;99.90;;;;;;4927111;28;208796;-71
2023/06/16 02:35:57;;;;;;;15.57;11.13;;;14.90;99.90;;;;;;4968027;28;20054;-71
2023/06/16 02:38:24;;;;;;;18.47;11.57;;;14.90;99.90;;;;;;4937537;28;209331;-72
2023/06/16 02:40:50;;;;;;;17.13;11.48;;;14.90;99.90;;;;;;4997725;28;20050;-71
2023/06/16 02:43:18;;;;;;;18.95;11.15;;;14.90;99.90;;;;;;4928318;28;209548;-71
2023/06/16 02:45:44;;;;;;;16.83;11.77;;;14.90;99.90;;;;;;4993978;28;20420;-71
2023/06/16 02:48:10;;;;;;;17.27;11.73;;;14.90;99.90;;;;;;4948506;28;207877;-70
2023/06/16 02:50:38;;;;;;;14.73;10.98;;;14.80;99.90;;;;;;4933677;28;20455;-71
2023/06/16 02:53:05;;;;;;;15.52;11.45;;;14.80;99.90;;;;;;4962446;28;20054;-69
2023/06/16 02:55:31;;;;;;;16.65;12.02;;;14.80;99.90;;;;;;4931253;28;206435;-70
2023/06/16 02:57:57;;;;;;;16.63;11.15;;;14.80;99.90;;;;;;4982659;28;20061;-70
2023/06/16 03:00:23;;;;;;;16.23;10.75;;;14.80;99.90;;;;;;4957075;28;207857;-70
2023/06/16 03:02:49;;;;;;;17.13;11.10;;;14.80;99.90;;;;;;4984019;28;20046;-70
2023/06/16 03:05:18;;;;;;;15.90;11.43;;;14.80;99.90;;;;;;4939517;28;205934;-71
2023/06/16 03:07:44;;;;;;;17.02;10.95;;;14.80;99.90;;;;;;4995762;28;20121;-71
2023/06/16 03:10:11;;;;;;;17.85;10.38;;;14.80;99.90;;;;;;4949851;28;206240;-70
2023/06/16 03:12:37;;;;;;;15.77;10.63;;;14.80;99.90;;;;;;4981694;28;20054;-70
2023/06/16 03:15:03;;;;;;;15.43;10.48;;;14.80;99.90;;;;;;4947939;28;206463;-70
2023/06/16 03:17:30;;;;;;;13.65;9.82;;;14.80;99.90;;;;;;4983823;28;20067;-71
2023/06/16 03:19:56;;;;;;;14.63;9.95;;;14.70;99.90;;;;;;4960545;28;207513;-70
2023/06/16 03:22:22;;;;;;;15.23;10.25;;;14.70;99.90;;;;;;4985238;28;20404;-69
2023/06/16 03:24:50;;;;;;;15.95;10.05;;;14.70;99.90;;;;;;4929226;28;221214;-70
2023/06/16 03:27:16;;;;;;;17.40;11.07;;;14.70;99.90;;;;;;4984552;28;20046;-69
2023/06/16 03:29:43;;;;;;;16.20;11.30;;;14.70;99.90;;;;;;4946720;28;166076;-71
2023/06/16 03:32:09;;;;;;;16.88;11.07;;;14.60;99.90;;;;;;4990014;28;20066;-71
2023/06/16 03:34:35;;;;;;;16.30;10.93;;;14.60;99.90;;;;;;4926524;28;210513;-71
2023/06/16 03:37:01;;;;;;;14.98;11.32;;;14.60;99.90;;;;;;4987192;28;20054;-71
2023/06/16 03:39:28;;;;;;;15.38;11.02;;;14.50;99.90;;;;;;4930621;28;207991;-71
2023/06/16 03:41:54;;;;;;;14.90;10.85;;;14.50;99.90;;;;;;4981505;28;20065;-70
2023/06/16 03:44:20;;;;;;;16.55;11.00;;;14.60;99.90;;;;;;4931963;28;212811;-71
2023/06/16 03:46:46;;;;;;;15.50;10.52;;;14.60;99.90;;;;;;4985105;28;20069;-70
2023/06/16 03:49:12;;;;;;;18.80;11.55;;;14.60;99.90;;;;;;4947002;28;210659;-70
2023/06/16 03:51:39;;;;;;;16.05;10.68;;;14.70;99.90;;;;;;4987664;28;20054;-71
2023/06/16 03:54:05;;;;;;;14.80;10.93;;;14.70;99.90;;;;;;4915000;28;213368;-71
2023/06/16 03:56:32;;;;;;;15.30;11.05;;;14.80;99.90;;;;;;4955710;28;20070;-71
2023/06/16 03:58:58;;;;;;;17.83;10.50;;;14.90;99.90;;;;;;4938779;28;209941;-71
2023/06/16 04:01:24;;;;;;;16.92;11.43;;;14.90;99.90;;;;;;4999912;28;20393;-71
2023/06/16 04:03:50;;;;;;;17.88;10.45;;;15.00;99.90;;;;;;4930283;28;207313;-70
2023/06/16 04:06:17;;;;;;;16.27;10.98;;;15.10;99.90;;;;;;4991364;28;20050;-70
2023/06/16 04:08:44;;;;;;;18.30;11.30;;;15.10;99.90;;;;;;4936016;28;208587;-71
2023/06/16 04:11:11;;;;;;;15.20;10.55;;;15.30;99.90;;;;;;4980149;28;20062;-70
2023/06/16 04:13:37;;;;;;;16.88;10.10;;;15.40;99.90;;;;;;4931634;28;207133;-71
2023/06/16 04:16:03;;;;;;;16.95;11.27;;;15.50;99.90;;;;;;4985377;28;20050;-70
2023/06/16 04:18:29;;;;;;;16.17;10.65;;;15.70;99.90;;;;;;4917970;28;207748;-70
2023/06/16 04:20:55;;;;;;;14.93;10.90;;;15.70;99.90;;;;;;4986756;28;20595;-70
2023/06/16 04:23:22;;;;;;;16.33;11.73;;;15.80;99.90;;;;;;4917048;28;207925;-71
2023/06/16 04:25:48;;;;;;;18.40;11.88;;;15.90;99.90;;;;;;4999063;28;20046;-71
2023/06/16 04:28:14;;;;;;;14.38;9.95;;;15.90;99.90;;;;;;4942012;28;209755;-70
2023/06/16 04:30:42;;;;;;;15.68;10.73;;;16.00;99.90;;;;;;4964932;28;20049;-71
2023/06/16 04:33:08;;;;;;;16.45;11.45;;;16.10;99.90;;;;;;4954356;28;213221;-70
2023/06/16 04:35:34;;;;;;;14.35;10.45;;;16.20;99.90;;;;;;4946678;28;166568;-72
2023/06/16 04:38:01;;;;;;;19.85;11.23;;;16.20;99.90;;;;;;4968602;28;20046;-70
2023/06/16 04:40:27;;;;;;;16.90;11.70;;;16.30;99.90;;;;;;4943170;28;209378;-69
2023/06/16 04:42:54;;;;;;;14.82;11.48;;;16.40;99.90;;;;;;4981403;28;20058;-71
2023/06/16 04:45:20;;;;;;;15.52;11.13;;;16.40;99.90;;;;;;4914250;28;183896;-71
2023/06/16 04:47:47;;;;;;;15.75;12.07;;;16.50;99.90;;;;;;4983372;28;20058;-71
2023/06/16 04:50:15;;;;;;;18.10;12.32;;;16.50;99.90;;;;;;4924097;28;207168;-70
2023/06/16 04:52:41;;;;;;;16.35;12.65;;;16.60;99.90;;;;;;4965360;28;20055;-71
2023/06/16 04:55:08;;;;;;;18.77;12.25;;;16.60;99.90;;;;;;4910591;28;209334;-71
2023/06/16 04:57:35;;;;;;;16.00;12.13;;;16.60;99.90;;;;;;4966870;28;20516;-71
2023/06/16 05:00:07;;;;;;;17.88;12.35;;;16.60;99.90;;;;;;4934814;28;215715;-69
2023/06/16 05:02:33;;;;;;;15.10;11.93;;;16.70;99.90;;;;;;4967835;28;20062;-70
2023/06/16 05:05:01;;;;;;;19.55;13.35;;;16.80;99.90;;;;;;4919954;28;214558;-70
2023/06/16 05:07:27;;;;;;;19.13;14.40;;;16.80;99.90;;;;;;4962871;28;20050;-70
2023/06/16 05:09:53;;;;;;;18.85;14.98;;;16.90;99.90;;;;;;4934865;28;224214;-71
2023/06/16 05:12:19;;;;;;;18.30;14.68;;;16.90;99.90;;;;;;4984997;28;20058;-70
2023/06/16 05:14:45;;;;;;;20.42;16.35;;;16.80;99.90;;;;;;4913311;28;208600;-71
2023/06/16 05:17:11;;;;;;;19.77;16.20;;;16.90;99.90;;;;;;4948210;28;20144;-69
2023/06/16 05:19:37;;;;;;;21.15;17.60;;;17.00;99.90;;;;;;4923549;28;206715;-70
2023/06/16 05:22:04;;;;;;;21.95;16.90;;;17.10;99.90;;;;;;4989876;28;20058;-70
2023/06/16 05:24:30;;;;;;;21.13;17.23;;;17.10;99.90;;;;;;4931371;28;226937;-72
2023/06/16 05:26:56;;;;;;;20.80;17.20;;;17.20;99.90;;;;;;4989320;28;20062;-71
2023/06/16 05:29:22;;;;;;;21.30;18.00;;;17.20;99.90;;;;;;4930968;28;253155;-71
2023/06/16 05:31:49;;;;;;;20.05;17.48;;;17.30;99.90;;;;;;4987209;28;20057;-71
2023/06/16 05:34:15;;;;;;;21.08;17.40;;;17.50;99.90;;;;;;4934007;28;209155;-69
2023/06/16 05:36:41;;;;;;;21.50;16.83;;;17.60;99.90;;;;;;4968213;28;20966;-71
2023/06/16 05:39:10;;;;;;;20.75;17.33;;;17.70;99.90;;;;;;4927705;28;206039;-70
2023/06/16 05:41:36;;;;;;;22.67;16.55;;;17.70;99.90;;;;;;4981346;28;20072;-71
2023/06/16 05:44:02;;;;;;;18.50;15.13;;;17.80;99.90;;;;;;4932776;28;207541;-71
2023/06/16 05:46:28;;;;;;;20.73;15.65;;;18.00;99.90;;;;;;4979961;28;20050;-70
2023/06/16 05:48:54;;;;;;;20.27;15.30;;;18.20;99.90;;;;;;4922304;28;207558;-71
2023/06/16 05:51:20;;;;;;;20.05;14.95;;;18.40;99.90;;;;;;4969480;28;20069;-70
2023/06/16 05:53:47;;;;;;;18.48;14.98;;;18.50;99.90;;;;;;4899493;28;205636;-70
2023/06/16 05:56:13;;;;;;;19.70;13.48;;;18.60;99.90;;;;;;4977392;28;20079;-70
2023/06/16 05:58:39;;;;;;;15.95;12.75;;;18.80;99.90;;;;;;4919913;28;207019;-70
2023/06/16 06:01:11;;;;;;;20.42;13.57;;;19.10;99.90;;;;;;4987958;28;20055;-69
2023/06/16 06:03:37;;;;;;;19.52;13.00;;;19.50;99.90;;;;;;4907933;28;212211;-70
2023/06/16 06:06:03;;;;;;;16.95;12.57;;;19.70;99.90;;;;;;4984313;28;20058;-70
2023/06/16 06:08:29;;;;;;;16.60;12.77;;;19.90;99.90;;;;;;4907960;28;210823;-71
2023/06/16 06:10:55;;;;;;;20.25;13.43;;;20.20;99.90;;;;;;4975116;28;20054;-71
2023/06/16 06:13:22;;;;;;;15.13;11.23;;;20.20;99.90;;;;;;4939301;28;207215;-71
2023/06/16 06:15:48;;;;;;;13.63;10.63;;;20.20;99.90;;;;;;4993164;28;20054;-72
2023/06/16 06:18:16;;;;;;;13.50;9.82;;;20.30;99.90;;;;;;4922239;28;211039;-71
2023/06/16 06:20:43;;;;;;;18.20;11.55;;;20.40;99.90;;;;;;5002949;28;20050;-71
2023/06/16 06:23:10;;;;;;;16.58;9.82;;;20.20;99.90;;;;;;4964363;28;210698;-70
2023/06/16 06:25:36;;;;;;;14.95;9.77;;;20.40;99.90;;;;;;4937116;28;20420;-71
2023/06/16 06:28:02;;;;;;;15.85;10.77;;;20.80;99.90;;;;;;4969610;28;20050;-72
2023/06/16 06:30:28;;;;;;;13.95;8.93;;;21.10;99.90;;;;;;4917353;28;205947;-72
2023/06/16 06:32:59;;;;;;;12.73;7.70;;;21.30;99.90;;;;;;4969423;28;20066;-72
2023/06/16 06:35:25;;;;;;;13.98;9.38;;;21.60;99.50;;;;;;4920988;28;208089;-72
2023/06/16 06:37:52;;;;;;;14.05;8.02;;;21.70;99.00;;;;;;4964101;28;20039;-72
2023/06/16 06:40:18;;;;;;;13.13;8.93;;;22.00;99.30;;;;;;4921581;28;210690;-72
2023/06/16 06:42:44;;;;;;;12.68;9.00;;;22.20;98.30;;;;;;4968782;28;20400;-72
2023/06/16 06:45:11;;;;;;;12.77;8.25;;;21.80;97.50;;;;;;4936059;28;208963;-72
2023/06/16 06:47:37;;;;;;;12.50;8.55;;;21.60;98.50;;;;;;4967516;28;20118;-72
2023/06/16 06:50:04;;;;;;;11.77;8.27;;;21.50;97.60;;;;;;4938330;28;227484;-72
2023/06/16 06:52:30;;;;;;;16.10;8.20;;;21.40;98.50;;;;;;4985869;28;20392;-72
2023/06/16 06:54:56;;;;;;;13.13;8.25;;;21.20;98.30;;;;;;4910896;28;209542;-72
2023/06/16 06:57:23;;;;;;;15.32;8.90;;;21.20;98.70;;;;;;4966004;28;20042;-72
2023/06/16 06:59:49;;;;;;;12.90;9.40;;;21.30;98.60;;;;;;4934239;28;210445;-72
2023/06/16 07:02:16;;;;;;;15.30;8.77;;;21.40;98.90;;;;;;4972740;28;20058;-71
2023/06/16 07:04:43;;;;;;;13.95;8.82;;;21.80;98.90;;;;;;4941234;28;210553;-73
2023/06/16 07:07:09;;;;;;;14.80;9.23;;;21.60;98.40;;;;;;4970533;28;20063;-71
2023/06/16 07:09:36;;;;;;;14.02;8.60;;;21.70;98.80;;;;;;4934629;28;209697;-72
2023/06/16 07:12:02;;;;;;;14.82;8.45;;;21.90;98.40;;;;;;4990671;28;20058;-71
2023/06/16 07:14:31;;;;;;;17.00;9.27;;;22.00;98.60;;;;;;4926596;28;205469;-72
2023/06/16 07:16:57;;;;;;;12.23;8.30;;;22.30;98.10;;;;;;4968826;28;20071;-71
2023/06/16 07:19:26;;;;;;;12.00;7.93;;;22.20;98.40;;;;;;4930931;28;209624;-72
2023/06/16 07:21:56;;;;;;;13.45;8.00;;;22.40;98.10;;;;;;4989403;28;20046;-72
2023/06/16 07:24:22;;;;;;;;;;;22.60;97.10;;;;;;4933151;28;210803;-72
2023/06/16 07:26:49;;;;;;;11.60;7.35;;;22.90;96.50;;;;;;4989021;28;19929;-72
2023/06/16 07:29:15;;;;;;;11.63;7.70;;;23.30;96.50;;;;;;4941224;28;71573;-72
2023/06/16 07:31:41;;;;;;;11.55;7.30;;;23.10;96.10;;;;;;4978464;28;20058;-71
2023/06/16 07:34:07;;;;;;;11.20;8.02;;;22.80;96.60;;;;;;4928485;28;206708;-72
2023/06/16 07:36:33;;;;;;;13.95;7.65;;;22.90;96.50;;;;;;4965321;28;20073;-70
2023/06/16 07:39:00;;;;;;;11.32;7.30;;;22.90;96.40;;;;;;4946185;28;206487;-70
2023/06/16 07:41:26;;;;;;;10.90;7.13;;;22.90;96.50;;;;;;5003572;28;20071;-70
2023/06/16 07:43:53;;;;;;;13.32;7.68;;;23.10;96.20;;;;;;4934042;28;209230;-70
2023/06/16 07:46:19;;;;;;;13.20;6.40;;;23.20;95.60;;;;;;4972232;28;20055;-73
2023/06/16 07:48:46;;;;;;;10.90;6.15;;;23.10;94.80;;;;;;4921715;28;206690;-73
2023/06/16 07:51:12;;;;;;;11.05;6.28;;;23.20;94.90;;;;;;4982561;28;20429;-73
2023/06/16 07:53:41;;;;;;;11.40;6.15;;;23.70;94.30;;;;;;4896433;28;282631;-72
2023/06/16 07:56:07;;;;;;;9.93;5.80;;;23.90;94.30;;;;;;4982540;28;20050;-72
2023/06/16 07:58:35;;;;;;;10.27;5.72;;;24.60;93.40;;;;;;4938441;28;207763;-71
2023/06/16 08:01:04;;;;;;;10.63;6.05;;;24.90;92.40;;;;;;4976996;28;20055;-70
2023/06/16 08:03:30;;;;;;;10.85;6.00;;;24.80;93.20;;;;;;4910395;28;211195;-71
2023/06/16 08:05:57;;;;;;;12.05;6.20;;;25.30;93.10;;;;;;4975614;28;20070;-71
2023/06/16 08:08:27;;;;;;;11.32;5.90;;;25.80;92.80;;;;;;4893817;28;208884;-71
2023/06/16 08:10:57;;;;;;;10.15;5.50;;;26.50;92.20;;;;;;4994447;28;20424;-71
2023/06/16 08:13:26;;;;;;;;;;;26.70;90.80;;;;;;4924393;28;209598;-71
2023/06/16 08:15:52;;;;;;;10.40;5.90;;;25.60;90.50;;;;;;4982807;28;20415;-71
2023/06/16 08:18:19;;;;;;;11.07;6.10;;;25.30;91.50;;;;;;4906290;28;225454;-70
2023/06/16 08:20:45;;;;;;;11.88;5.95;;;25.70;91.60;;;;;;5013365;28;20047;-71
2023/06/16 08:23:12;;;;;;;11.70;5.53;;;26.30;91.60;;;;;;4958370;28;209895;-71
2023/06/16 08:25:38;;;;;;;9.93;5.95;;;26.60;90.40;;;;;;4962956;28;20046;-71
2023/06/16 08:28:07;;;;;;;11.68;5.50;;;26.80;90.80;;;;;;4983220;28;20050;-71
2023/06/16 08:30:34;;;;;;;10.63;5.68;;;26.80;89.90;;;;;;4929732;28;207817;-71
2023/06/16 08:33:01;;;;;;;9.82;5.72;;;27.00;89.70;;;;;;4986085;28;20407;-71
2023/06/16 08:35:28;;;;;;;10.65;4.80;;;27.30;89.70;;;;;;4940623;28;207499;-70
2023/06/16 08:37:54;;;;;;;11.35;4.82;;;27.60;88.20;;;;;;4961052;28;20701;-70
2023/06/16 08:40:20;;;;;;;11.90;4.78;;;27.60;87.10;;;;;;4951607;28;216491;-70
2023/06/16 08:42:47;;;;;;;10.75;4.80;;;27.40;88.30;;;;;;4957920;28;20058;-70
2023/06/16 08:45:14;;;;;;;9.45;5.03;;;27.70;87.60;;;;;;4938299;28;206795;-71
2023/06/16 08:47:42;;;;;;;9.50;4.45;;;28.40;85.90;;;;;;4963294;28;20062;-72
2023/06/16 08:50:09;;;;;;;9.48;4.30;;;28.50;86.60;;;;;;4937378;28;213328;-71
2023/06/16 08:52:40;;;;;;;9.80;4.28;;;28.70;85.90;;;;;;4961752;28;20051;-71
2023/06/16 08:55:09;;;;;;;9.60;4.00;;;29.30;83.60;;;;;;4879450;28;209487;-70
2023/06/16 08:57:44;;;;;;;8.90;3.97;;;28.70;79.90;;;;;;4966205;28;20055;-71
2023/06/16 09:00:10;;;;;;;8.73;4.25;;;27.80;81.40;;;;;;4911730;28;210196;-71
2023/06/16 09:02:36;;;;;;;10.95;4.47;;;28.10;81.80;;;;;;4964859;28;20046;-71
2023/06/16 09:05:04;;;;;;;9.50;4.10;;;28.80;81.70;;;;;;4929577;28;216801;-70
2023/06/16 09:07:30;;;;;;;8.20;3.20;;;28.40;77.20;;;;;;4962338;28;20074;-72
2023/06/16 09:09:58;;;;;;;8.40;3.60;;;27.70;78.90;;;;;;4918750;28;208819;-71
2023/06/16 09:12:24;;;;;;;10.82;3.28;;;27.30;77.00;;;;;;4961840;28;20059;-70
2023/06/16 09:14:51;;;;;;;9.13;3.35;;;27.70;78.60;;;;;;4940028;28;210594;-70
2023/06/16 09:17:30;;;;;;;8.38;3.47;;;28.60;77.30;;;;;;4968402;28;20341;-71
2023/06/16 09:19:56;;;;;;;9.23;3.08;;;29.10;77.00;;;;;;4927057;28;207297;-71
2023/06/16 09:22:26;;;;;;;7.88;3.17;;;29.80;72.90;;;;;;4962333;28;20527;-71
2023/06/16 09:24:57;;;;;;;8.57;3.15;;;30.10;72.20;;;;;;4936141;28;206844;-71
2023/06/16 09:27:27;;;;;;;8.32;3.40;;;28.80;73.80;;;;;;4968853;28;20054;-71
2023/06/16 09:30:00;;;;;;;10.20;3.05;;;29.30;74.00;;;;;;4946354;28;206912;-71
2023/06/16 09:32:37;;;;;;;8.95;3.30;;;30.20;73.20;;;;;;4990974;28;20051;-71
2023/06/16 09:35:20;;;;;;;10.48;3.47;;;30.30;70.20;;;;;;4913879;28;208132;-71
2023/06/16 09:37:48;;;;;;;8.02;3.17;;;29.80;70.80;;;;;;4962646;28;20054;-70
2023/06/16 09:40:16;;;;;;;9.40;2.95;;;30.00;70.00;;;;;;4928024;28;216174;-71
2023/06/16 09:42:43;;;;;;;7.68;2.55;;;30.30;69.30;;;;;;4964084;28;20416;-71
2023/06/16 09:45:17;;;;;;;8.25;3.17;;;30.40;66.40;;;;;;4925973;28;196980;-71
2023/06/16 09:47:48;;;;;;;7.22;2.50;;;30.70;66.60;;;;;;4969647;28;20051;-71
2023/06/16 09:50:15;;;;;;;8.15;2.58;;;30.50;66.20;;;;;;4934656;28;206026;-71
2023/06/16 09:52:44;;;;;;;9.40;2.60;;;30.80;64.60;;;;;;4967200;28;20074;-71
2023/06/16 09:55:11;;;;;;;7.03;2.50;;;30.50;62.30;;;;;;4894976;28;203866;-71
2023/06/16 09:57:39;;;;;;;7.45;2.78;;;29.60;63.10;;;;;;4958453;28;20051;-72
2023/06/16 10:00:15;;;;;;;7.10;2.58;;;29.70;64.90;;;;;;4933590;28;188239;-71
2023/06/16 10:02:52;;;;;;;9.02;2.65;;;30.40;63.40;;;;;;4968596;28;20059;-71
2023/06/16 10:05:19;;;;;;;8.05;2.60;;;30.90;62.50;;;;;;4946659;28;224114;-70
2023/06/16 10:07:48;;;;;;;7.95;2.60;;;31.00;63.60;;;;;;4970989;28;20559;-70
2023/06/16 10:10:16;;;;;;;10.05;2.72;;;31.30;63.00;;;;;;4943626;28;222554;-70
2023/06/16 10:12:50;;;;;;;8.43;2.60;;;31.50;63.80;;;;;;4970027;28;20067;-71
2023/06/16 10:15:25;;;;;;;7.80;2.63;;;32.00;62.90;;;;;;4929543;28;211764;-70
2023/06/16 10:17:55;;;;;;;8.05;2.58;;;32.00;61.50;;;;;;4973424;28;20274;-71
2023/06/16 10:20:25;;;;;;;7.75;2.58;;;30.70;61.90;;;;;;4898393;28;196731;-71
2023/06/16 10:22:51;;;;;;;;;;;30.70;63.30;;;;;;5000731;28;20054;-71
2023/06/16 10:25:18;;;;;;;7.53;2.72;;;30.20;61.40;;;;;;4923642;28;214046;-70
2023/06/16 10:27:45;;;;;;;10.55;3.00;;;30.30;62.30;;;;;;4966440;28;20060;-71
2023/06/16 10:30:19;;;;;;;7.97;2.60;;;29.40;61.70;;;;;;4934484;28;208501;-70
2023/06/16 10:32:49;;;;;;;7.85;2.33;;;28.50;62.90;;;;;;4967459;28;20066;-70
2023/06/16 10:35:17;;;;;;;10.27;2.50;;;27.40;63.30;;;;;;4926293;28;202831;-71
2023/06/16 10:37:49;;;;;;;8.75;2.42;;;27.70;65.50;;;;;;4969261;28;20389;-71
2023/06/16 10:40:21;;;;;;;7.45;2.70;;;28.30;63.30;;;;;;4918391;28;210724;-70
2023/06/16 10:42:49;;;;;;;8.23;2.67;;;28.10;63.70;;;;;;4963507;28;20504;-70
2023/06/16 10:45:21;;;;;;;8.85;2.42;;;28.40;63.70;;;;;;4941446;28;209263;-70
2023/06/16 10:47:59;;;;;;;7.78;2.58;;;28.70;62.80;;;;;;4967452;28;20057;-72
2023/06/16 10:50:32;;;;;;;8.23;2.72;;;28.30;62.30;;;;;;4956992;28;209263;-70
2023/06/16 10:53:12;;;;;;;7.85;2.58;;;28.50;63.50;;;;;;4989192;28;20054;-71
2023/06/16 10:55:40;;;;;;;8.77;2.67;;;29.00;60.90;;;;;;4934064;28;20054;-71
2023/06/16 10:58:15;;;;;;;7.50;2.53;;;28.70;63.00;;;;;;4968597;28;20055;-72
2023/06/16 11:01:01;;;;;;;8.20;2.50;;;29.10;63.40;;;;;;4927884;28;53346;-71
2023/06/16 11:03:36;;;;;;;12.05;2.53;;;29.90;61.30;;;;;;4931594;28;207433;-71
2023/06/16 11:06:03;;;;;;;6.97;2.50;;;30.20;60.70;;;;;;4994021;28;20046;-72
2023/06/16 11:08:29;;;;;;;8.32;2.60;;;30.40;61.50;;;;;;4927278;28;208009;-71
2023/06/16 11:11:06;;;;;;;12.25;3.00;;;30.50;60.00;;;;;;4998682;28;20056;-72
2023/06/16 11:13:38;;;;;;;9.05;2.60;;;30.60;60.40;;;;;;4935135;28;206133;-71
2023/06/16 11:16:04;;;;;;;7.75;2.60;;;30.70;60.10;;;;;;4994509;28;20938;-70
2023/06/16 11:18:33;;;;;;;7.20;2.30;;;30.60;58.70;;;;;;4932975;28;209214;-71
2023/06/16 11:21:05;;;;;;;7.43;2.42;;;30.30;59.60;;;;;;4976408;28;20054;-70
2023/06/16 11:23:31;;;;;;;10.45;2.85;;;30.70;60.90;;;;;;4938181;28;208221;-70
2023/06/16 11:26:12;;;;;;;9.45;2.85;;;30.70;58.60;;;;;;4967694;28;20042;-69
2023/06/16 11:28:43;;;;;;;9.85;2.90;;;30.60;61.20;;;;;;4935068;28;207693;-69
2023/06/16 11:31:10;;;;;;;11.80;2.65;;;30.60;59.30;;;;;;5002779;28;20097;-70
2023/06/16 11:33:37;;;;;;;7.32;2.40;;;30.70;59.80;;;;;;4920242;28;210910;-71
2023/06/16 11:36:21;;;;;;;8.13;2.90;;;31.00;58.30;;;;;;4949034;28;20058;-69
2023/06/16 11:38:50;;;;;;;7.47;3.10;;;30.80;57.90;;;;;;4911384;28;211541;-71
2023/06/16 11:41:29;;;;;;;8.93;2.73;;;31.00;58.90;;;;;;4973699;28;20224;-71
2023/06/16 11:43:56;;;;;;;9.82;3.13;;;30.90;57.70;;;;;;4920363;28;209738;-71
2023/06/16 11:46:34;;;;;;;8.40;2.90;;;30.60;57.70;;;;;;4982418;28;20050;-71
2023/06/16 11:49:01;;;;;;;8.02;2.85;;;30.70;57.20;;;;;;4921392;28;250488;-70
2023/06/16 11:51:28;;;;;;;8.15;2.78;;;30.50;58.10;;;;;;4951225;28;20077;-71
2023/06/16 11:53:54;;;;;;;8.90;2.95;;;30.70;59.30;;;;;;4892410;28;207247;-70
2023/06/16 11:56:24;;;;;;;9.45;2.88;;;31.10;59.00;;;;;;4962390;28;20139;-70
2023/06/16 11:58:52;;;;;;;7.70;2.53;;;31.10;57.80;;;;;;4921381;28;206089;-69
2023/06/16 12:01:20;;;;;;;11.07;3.03;;;31.60;57.80;;;;;;4992209;28;20054;-71
2023/06/16 12:03:47;;;;;;;8.88;2.55;;;31.40;57.40;;;;;;4931722;28;212357;-73
2023/06/16 12:06:14;;;;;;;9.02;2.75;;;31.30;56.80;;;;;;5004421;28;20073;-72
2023/06/16 12:08:45;;;;;;;10.10;2.83;;;30.80;57.20;;;;;;4935582;28;208965;-71
2023/06/16 12:11:21;;;;;;;6.97;2.40;;;30.80;57.20;;;;;;4984530;28;20047;-71
2023/06/16 12:13:49;;;;;;;7.43;2.30;;;30.90;57.20;;;;;;4914945;28;246973;-71
2023/06/16 12:16:15;;;;;;;10.18;2.45;;;31.40;57.90;;;;;;5001991;28;20400;-74
2023/06/16 12:18:41;;;;;;;8.48;2.13;;;31.00;56.30;;;;;;4923576;28;208458;-73
2023/06/16 12:21:19;;;;;;;8.40;2.50;;;30.20;56.90;;;;;;4976120;28;20058;-73
2023/06/16 12:23:52;;;;;;;7.55;2.40;;;30.30;57.20;;;;;;4915278;28;216187;-74
2023/06/16 12:26:29;;;;;;;8.52;2.30;;;29.70;57.20;;;;;;4965458;28;20058;-73
2023/06/16 12:28:56;;;;;;;9.02;2.20;;;29.40;56.80;;;;;;4925438;28;156132;-74
2023/06/16 12:31:26;;;;;;;8.40;2.50;;;28.70;56.80;;;;;;4976843;28;20046;-74
2023/06/16 12:33:57;;;;;;;12.73;2.65;;;28.00;57.40;;;;;;4912966;28;228622;-74
2023/06/16 12:36:23;;;;;;;9.45;2.47;;;28.70;57.60;;;;;;4973163;28;20445;-75
2023/06/16 12:38:53;;;;;;;10.30;2.50;;;29.40;57.40;;;;;;4918213;28;199967;-75